createdAt,value
2023-03-06T00:00:44.686Z,30.97
2023-03-06T00:03:13.262Z,30.63
2023-03-06T00:05:42.291Z,30.50
2023-03-06T00:08:11.953Z,31.00
2023-03-06T00:10:41.334Z,30.40
2023-03-06T00:13:12.663Z,30.70
2023-03-06T00:15:41.248Z,31.60
2023-03-06T00:18:10.220Z,31.93
2023-03-06T00:20:40.104Z,30.47
2023-03-06T00:23:08.651Z,31.77
2023-03-06T00:25:38.866Z,30.83
2023-03-06T00:28:07.857Z,31.93
2023-03-06T00:30:36.359Z,30.83
2023-03-06T00:33:04.823Z,32.03
2023-03-06T00:35:33.258Z,33.13
2023-03-06T00:38:02.026Z,33.47
2023-03-06T00:40:30.477Z,32.63
2023-03-06T00:43:00.025Z,31.83
2023-03-06T00:45:28.376Z,32.30
2023-03-06T00:47:56.810Z,32.03
2023-03-06T00:50:25.200Z,34.13
2023-03-06T00:52:53.752Z,32.27
2023-03-06T00:55:22.221Z,33.00
2023-03-06T00:57:50.686Z,34.53
2023-03-06T01:00:21.100Z,32.47
2023-03-06T01:02:49.630Z,32.17
2023-03-06T01:05:18.033Z,33.23
2023-03-06T01:07:46.854Z,32.27
2023-03-06T01:10:15.253Z,33.17
2023-03-06T01:12:43.685Z,32.57
2023-03-06T01:15:13.683Z,32.77
2023-03-06T01:17:43.809Z,32.10
2023-03-06T01:20:15.310Z,31.63
2023-03-06T01:22:43.736Z,31.93
2023-03-06T01:25:12.276Z,32.80
2023-03-06T01:27:40.705Z,32.43
2023-03-06T01:30:10.501Z,32.03
2023-03-06T01:32:38.977Z,31.77
2023-03-06T01:35:09.628Z,32.63
2023-03-06T01:37:39.017Z,31.77
2023-03-06T01:40:10.424Z,31.77
2023-03-06T01:42:38.843Z,30.43
2023-03-06T01:45:09.473Z,31.07
2023-03-06T01:47:38.208Z,29.83
2023-03-06T01:50:11.661Z,30.90
2023-03-06T01:52:44.862Z,28.60
2023-03-06T01:55:17.138Z,30.47
2023-03-06T01:57:48.393Z,28.03
2023-03-06T02:00:19.229Z,28.63
2023-03-06T02:02:54.282Z,27.33
2023-03-06T02:05:24.631Z,28.53
2023-03-06T02:07:54.657Z,25.67
2023-03-06T02:10:23.316Z,25.30
2023-03-06T02:12:52.906Z,25.20
2023-03-06T02:15:23.829Z,24.50
2023-03-06T02:17:53.666Z,24.63
2023-03-06T02:20:29.026Z,22.90
2023-03-06T02:23:03.310Z,24.87
2023-03-06T02:25:39.154Z,24.97
2023-03-06T02:28:09.496Z,24.20
2023-03-06T02:30:38.931Z,23.90
2023-03-06T02:33:07.889Z,23.43
2023-03-06T02:35:39.485Z,22.80
2023-03-06T02:38:12.772Z,25.27
2023-03-06T02:40:44.789Z,26.13
2023-03-06T02:43:15.523Z,24.50
2023-03-06T02:45:46.925Z,25.77
2023-03-06T02:48:16.204Z,26.47
2023-03-06T02:50:45.711Z,26.17
2023-03-06T02:53:16.560Z,26.83
2023-03-06T02:55:46.515Z,26.83
2023-03-06T02:58:15.076Z,27.03
2023-03-06T03:00:43.622Z,27.07
2023-03-06T03:03:12.162Z,26.73
2023-03-06T03:05:40.745Z,28.13
2023-03-06T03:08:09.393Z,27.70
2023-03-06T03:10:37.794Z,27.93
2023-03-06T03:13:07.451Z,28.47
2023-03-06T03:15:36.297Z,27.80
2023-03-06T03:18:05.274Z,28.50
2023-03-06T03:20:33.703Z,28.87
2023-03-06T03:23:02.182Z,27.97
2023-03-06T03:25:30.613Z,29.00
2023-03-06T03:27:59.002Z,29.30
2023-03-06T03:30:28.677Z,28.83
2023-03-06T03:32:57.056Z,29.63
2023-03-06T03:35:25.548Z,29.70
2023-03-06T03:37:55.285Z,29.60
2023-03-06T03:40:23.684Z,28.27
2023-03-06T03:42:52.078Z,29.40
2023-03-06T03:45:20.522Z,29.07
2023-03-06T03:47:50.468Z,30.20
2023-03-06T03:50:19.015Z,30.27
2023-03-06T03:52:47.440Z,30.30
2023-03-06T03:55:15.833Z,30.43
2023-03-06T03:57:44.377Z,30.50
2023-03-06T04:00:16.339Z,31.73
2023-03-06T04:02:44.942Z,31.03
2023-03-06T04:05:16.067Z,23.23
2023-03-06T04:07:44.585Z,22.27
2023-03-06T04:10:14.955Z,20.60
2023-03-06T04:12:43.462Z,20.00
2023-03-06T04:15:12.364Z,20.87
2023-03-06T04:17:40.864Z,19.73
2023-03-06T04:20:10.451Z,19.17
2023-03-06T04:22:40.170Z,18.53
2023-03-06T04:25:09.051Z,19.67
2023-03-06T04:27:37.895Z,19.43
2023-03-06T04:30:07.215Z,18.87
2023-03-06T04:32:35.838Z,18.17
2023-03-06T04:35:04.217Z,18.03
2023-03-06T04:37:32.892Z,18.40
2023-03-06T04:40:02.587Z,17.93
2023-03-06T04:42:31.272Z,18.83
2023-03-06T04:44:59.721Z,18.17
2023-03-06T04:47:28.122Z,19.43
2023-03-06T04:49:56.529Z,19.73
2023-03-06T04:52:24.983Z,19.20
2023-03-06T04:54:53.363Z,18.40
2023-03-06T04:57:23.928Z,18.93
2023-03-06T04:59:52.621Z,19.83
2023-03-06T05:02:21.115Z,19.13
2023-03-06T05:04:49.637Z,18.20
2023-03-06T05:07:18.042Z,20.50
2023-03-06T05:09:46.733Z,20.17
2023-03-06T05:12:15.144Z,19.33
2023-03-06T05:14:47.095Z,19.37
2023-03-06T05:17:17.851Z,19.70
2023-03-06T05:19:46.541Z,20.10
2023-03-06T05:22:14.980Z,18.97
2023-03-06T05:24:43.351Z,19.80
2023-03-06T05:27:11.790Z,19.67
2023-03-06T05:29:40.311Z,19.40
2023-03-06T05:32:10.460Z,19.50
2023-03-06T05:34:40.415Z,18.90
2023-03-06T05:37:08.860Z,20.07
2023-03-06T05:39:37.423Z,18.57
2023-03-06T05:42:06.012Z,18.87
2023-03-06T05:44:35.241Z,19.73
2023-03-06T05:47:03.999Z,18.93
2023-03-06T05:49:36.099Z,19.27
2023-03-06T05:52:06.050Z,18.77
2023-03-06T05:54:36.232Z,17.43
2023-03-06T05:57:05.395Z,19.20
2023-03-06T05:59:34.386Z,17.37
2023-03-06T06:02:04.013Z,17.83
2023-03-06T06:04:32.606Z,17.87
2023-03-06T06:07:02.623Z,20.03
2023-03-06T06:09:31.190Z,19.07
2023-03-06T06:12:01.591Z,17.20
2023-03-06T06:14:30.004Z,18.60
2023-03-06T06:16:58.385Z,17.50
2023-03-06T06:19:29.240Z,17.37
2023-03-06T06:21:57.993Z,18.17
2023-03-06T06:24:28.404Z,17.60
2023-03-06T06:26:58.213Z,17.87
2023-03-06T06:29:28.764Z,18.33
2023-03-06T06:31:57.732Z,17.70
2023-03-06T06:34:26.487Z,19.93
2023-03-06T06:36:55.548Z,17.80
2023-03-06T06:39:25.200Z,17.47
2023-03-06T06:42:14.653Z,18.30
2023-03-06T06:44:43.394Z,17.57
2023-03-06T06:47:22.743Z,18.37
2023-03-06T06:49:52.914Z,18.50
2023-03-06T06:52:21.415Z,18.17
2023-03-06T06:54:49.846Z,17.90
2023-03-06T06:57:19.927Z,17.03
2023-03-06T06:59:48.408Z,18.20
2023-03-06T07:02:17.036Z,18.47
2023-03-06T07:05:01.904Z,16.73
2023-03-06T07:07:32.364Z,16.57
2023-03-06T07:10:00.704Z,16.67
2023-03-06T07:12:32.819Z,16.47
2023-03-06T07:15:01.310Z,16.90
2023-03-06T07:17:30.390Z,15.60
2023-03-06T07:19:59.605Z,16.23
2023-03-06T07:22:30.324Z,17.93
2023-03-06T07:25:00.588Z,16.47
2023-03-06T07:27:30.212Z,17.07
2023-03-06T07:29:58.826Z,16.67
2023-03-06T07:32:27.357Z,17.73
2023-03-06T07:35:12.936Z,17.53
2023-03-06T07:37:44.386Z,18.43
2023-03-06T07:40:14.083Z,17.77
2023-03-06T07:42:43.771Z,18.23
2023-03-06T07:45:12.929Z,17.37
2023-03-06T07:47:41.903Z,18.30
2023-03-06T07:50:11.201Z,17.10
2023-03-06T07:52:39.731Z,16.70
2023-03-06T07:55:09.677Z,16.93
2023-03-06T07:57:38.520Z,16.53
2023-03-06T08:00:12.909Z,17.77
2023-03-06T08:02:42.742Z,16.60
2023-03-06T08:05:14.145Z,17.13
2023-03-06T08:07:42.945Z,17.50
2023-03-06T08:10:14.440Z,18.43
2023-03-06T08:12:42.986Z,17.00
2023-03-06T08:15:14.094Z,17.20
2023-03-06T08:17:42.889Z,18.03
2023-03-06T08:20:12.668Z,17.40
2023-03-06T08:22:41.163Z,17.90
2023-03-06T08:25:10.200Z,18.33
2023-03-06T08:27:39.118Z,17.90
2023-03-06T08:30:08.496Z,19.50
2023-03-06T08:32:38.921Z,18.10
2023-03-06T08:35:08.168Z,19.17
2023-03-06T08:37:37.100Z,17.53
2023-03-06T08:40:06.273Z,19.33
2023-03-06T08:42:34.700Z,21.37
2023-03-06T08:45:03.152Z,19.60
2023-03-06T08:47:31.812Z,19.30
2023-03-06T08:50:01.599Z,19.17
2023-03-06T08:52:30.118Z,19.87
2023-03-06T08:55:03.486Z,20.30
2023-03-06T08:57:32.053Z,19.43
2023-03-06T09:00:00.374Z,19.90
2023-03-06T09:02:29.002Z,19.73
2023-03-06T09:04:57.471Z,19.97
2023-03-06T09:07:27.352Z,19.67
2023-03-06T09:09:57.796Z,20.07
2023-03-06T09:12:27.231Z,19.83
2023-03-06T09:14:56.646Z,19.17
2023-03-06T09:17:25.505Z,20.83
2023-03-06T09:19:53.887Z,20.30
2023-03-06T09:22:22.300Z,20.27
2023-03-06T09:24:52.452Z,21.00
2023-03-06T09:27:22.963Z,21.07
2023-03-06T09:29:51.560Z,21.13
2023-03-06T09:32:20.177Z,20.63
2023-03-06T09:34:48.673Z,21.47
2023-03-06T09:37:17.434Z,21.93
2023-03-06T09:39:46.050Z,21.37
2023-03-06T09:42:19.769Z,20.50
2023-03-06T09:44:54.363Z,21.20
2023-03-06T09:47:48.655Z,21.67
2023-03-06T09:50:33.603Z,21.37
2023-03-06T09:53:34.222Z,22.93
2023-03-06T09:56:06.032Z,23.17
2023-03-06T09:58:42.999Z,21.27
2023-03-06T10:01:18.710Z,20.90
2023-03-06T10:03:53.713Z,22.83
2023-03-06T10:06:26.383Z,22.87
2023-03-06T10:08:59.521Z,23.03
2023-03-06T10:11:34.113Z,21.03
2023-03-06T10:14:15.114Z,22.40
2023-03-06T10:16:46.833Z,20.10
2023-03-06T10:19:18.666Z,21.20
2023-03-06T10:21:57.422Z,20.17
2023-03-06T10:24:35.644Z,20.50
2023-03-06T10:27:16.482Z,20.83
2023-03-06T10:30:02.725Z,19.53
2023-03-06T10:32:48.221Z,21.70
2023-03-06T10:35:21.128Z,21.50
2023-03-06T10:37:50.311Z,21.07
2023-03-06T10:40:20.951Z,20.87
2023-03-06T10:42:53.982Z,23.07
2023-03-06T10:45:40.572Z,22.13
2023-03-06T10:48:20.702Z,20.13
2023-03-06T10:50:49.593Z,20.37
2023-03-06T10:53:22.526Z,21.40
2023-03-06T10:55:56.192Z,22.03
2023-03-06T10:58:27.015Z,20.63
2023-03-06T11:01:08.703Z,20.90
2023-03-06T11:03:37.926Z,19.53
2023-03-06T11:06:13.278Z,20.77
2023-03-06T11:08:43.540Z,21.83
2023-03-06T11:11:14.502Z,21.93
2023-03-06T11:13:45.511Z,20.17
2023-03-06T11:16:25.797Z,22.43
2023-03-06T11:18:59.030Z,20.80
2023-03-06T11:21:31.496Z,21.50
2023-03-06T11:24:05.188Z,21.67
2023-03-06T11:26:38.671Z,21.83
2023-03-06T11:29:37.515Z,16.10
2023-03-06T11:32:13.265Z,19.10
2023-03-06T11:34:50.141Z,15.90
2023-03-06T11:37:25.980Z,16.50
2023-03-06T11:40:04.683Z,13.90
2023-03-06T11:42:40.263Z,20.97
2023-03-06T11:45:25.062Z,19.20
2023-03-06T11:48:04.088Z,20.63
2023-03-06T11:50:36.755Z,21.33
2023-03-06T11:53:06.593Z,18.17
2023-03-06T11:55:45.794Z,18.50
2023-03-06T11:58:39.073Z,18.47
2023-03-06T12:01:11.811Z,17.93
2023-03-06T12:04:01.219Z,14.70
2023-03-06T12:06:41.861Z,15.20
2023-03-06T12:09:32.674Z,14.37
2023-03-06T12:12:14.441Z,13.23
2023-03-06T12:15:05.499Z,12.97
2023-03-06T12:17:51.788Z,12.47
2023-03-06T12:20:36.573Z,12.17
2023-03-06T12:23:19.051Z,11.27
2023-03-06T12:25:52.666Z,11.37
2023-03-06T12:28:33.046Z,10.33
2023-03-06T12:31:25.702Z,13.53
2023-03-06T12:34:08.889Z,12.90
2023-03-06T12:36:54.771Z,12.00
2023-03-06T12:39:30.921Z,11.23
2023-03-06T12:42:24.662Z,12.40
2023-03-06T12:45:22.176Z,11.80
2023-03-06T12:47:54.232Z,12.77
2023-03-06T12:50:26.570Z,12.30
2023-03-06T12:52:59.227Z,11.23
2023-03-06T12:55:27.869Z,11.03
2023-03-06T12:57:56.463Z,9.70
2023-03-06T13:01:03.556Z,10.70
2023-03-06T13:03:44.930Z,10.07
2023-03-06T13:06:36.621Z,10.43
2023-03-06T13:09:20.202Z,11.67
2023-03-06T13:12:14.298Z,11.43
2023-03-06T13:14:57.819Z,11.07
2023-03-06T13:17:43.979Z,9.50
2023-03-06T13:20:38.012Z,9.90
2023-03-06T13:23:50.462Z,9.03
2023-03-06T13:27:07.044Z,8.70
2023-03-06T13:30:22.798Z,9.83
2023-03-06T13:32:53.905Z,8.27
2023-03-06T13:35:52.148Z,8.97
2023-03-06T13:38:37.988Z,10.23
2023-03-06T13:41:43.437Z,11.37
2023-03-06T13:44:42.969Z,7.53
2023-03-06T13:47:59.091Z,10.80
2023-03-06T13:50:36.492Z,11.37
2023-03-06T13:53:40.636Z,10.53
2023-03-06T13:56:28.209Z,10.77
2023-03-06T13:59:17.363Z,10.10
2023-03-06T14:01:54.227Z,10.37
2023-03-06T14:04:38.365Z,11.17
2023-03-06T14:07:21.805Z,10.23
2023-03-06T14:10:00.729Z,11.70
2023-03-06T14:12:33.918Z,10.60
2023-03-06T14:15:07.168Z,12.67
2023-03-06T14:17:39.258Z,12.03
2023-03-06T14:20:16.100Z,10.77
2023-03-06T14:22:45.800Z,11.00
2023-03-06T14:25:18.522Z,12.17
2023-03-06T14:27:50.346Z,12.33
2023-03-06T14:30:23.128Z,11.97
2023-03-06T14:32:54.824Z,11.40
2023-03-06T14:35:34.442Z,12.27
2023-03-06T14:38:08.131Z,11.10
2023-03-06T14:40:37.982Z,12.40
2023-03-06T14:43:21.966Z,10.73
2023-03-06T14:45:55.566Z,10.43
2023-03-06T14:48:24.460Z,10.97
2023-03-06T14:50:55.643Z,9.43
2023-03-06T14:53:29.230Z,9.20
2023-03-06T14:56:00.461Z,7.87
2023-03-06T14:58:33.217Z,8.73
2023-03-06T15:01:04.962Z,9.47
2023-03-06T15:03:44.282Z,8.63
2023-03-06T15:06:20.392Z,8.23
2023-03-06T15:09:01.438Z,7.57
2023-03-06T15:11:57.527Z,6.20
2023-03-06T15:14:32.753Z,7.93
2023-03-06T15:17:26.441Z,8.90
2023-03-06T15:19:56.420Z,9.70
2023-03-06T15:22:29.535Z,8.97
2023-03-06T15:25:20.093Z,9.27
2023-03-06T15:27:53.648Z,8.07
2023-03-06T15:30:31.308Z,9.50
2023-03-06T15:33:25.460Z,8.87
2023-03-06T15:35:57.259Z,8.93
2023-03-06T15:38:31.062Z,8.13
2023-03-06T15:41:03.208Z,9.60
2023-03-06T15:43:36.171Z,10.10
2023-03-06T15:46:07.046Z,10.60
2023-03-06T15:48:36.448Z,10.57
2023-03-06T15:51:05.951Z,10.47
2023-03-06T15:53:34.425Z,10.03
2023-03-06T15:56:05.794Z,10.30
2023-03-06T15:58:35.433Z,10.73
2023-03-06T16:01:04.308Z,10.57
2023-03-06T16:03:32.671Z,10.50
2023-03-06T16:06:01.154Z,10.50
2023-03-06T16:08:29.948Z,11.30
2023-03-06T16:10:58.999Z,12.07
2023-03-06T16:13:30.066Z,11.97
2023-03-06T16:15:58.600Z,10.63
2023-03-06T16:18:27.147Z,11.13
2023-03-06T16:20:55.584Z,12.00
2023-03-06T16:23:24.038Z,12.37
2023-03-06T16:25:52.427Z,15.17
2023-03-06T16:28:21.076Z,11.93
2023-03-06T16:30:50.787Z,14.00
2023-03-06T16:33:19.259Z,13.50
2023-03-06T16:35:49.986Z,13.73
2023-03-06T16:38:18.731Z,11.90
2023-03-06T16:40:47.209Z,11.60
2023-03-06T16:43:16.623Z,12.17
2023-03-06T16:45:45.251Z,11.50
2023-03-06T16:48:18.545Z,11.87
2023-03-06T16:50:47.298Z,11.17
2023-03-06T16:53:16.490Z,12.30
2023-03-06T16:55:45.048Z,12.80
2023-03-06T16:58:13.394Z,12.17
2023-03-06T17:00:41.883Z,12.00
2023-03-06T17:03:10.417Z,12.60
2023-03-06T17:05:40.747Z,13.17
2023-03-06T17:08:10.557Z,13.27
2023-03-06T17:10:41.500Z,13.70
2023-03-06T17:13:10.776Z,13.03
2023-03-06T17:15:39.345Z,12.67
2023-03-06T17:18:08.159Z,13.53
2023-03-06T17:20:36.631Z,13.57
2023-03-06T17:23:06.243Z,12.33
2023-03-06T17:25:34.965Z,11.53
2023-03-06T17:28:04.302Z,12.40
2023-03-06T17:30:32.768Z,11.80
2023-03-06T17:33:01.229Z,10.87
2023-03-06T17:35:29.692Z,10.47
2023-03-06T17:37:58.634Z,9.73
2023-03-06T17:40:28.494Z,12.27
2023-03-06T17:42:56.948Z,9.57
2023-03-06T17:45:25.323Z,9.60
2023-03-06T17:47:57.104Z,10.23
2023-03-06T17:50:25.578Z,7.90
2023-03-06T17:52:53.992Z,9.67
2023-03-06T17:55:22.525Z,10.20
2023-03-06T17:57:54.503Z,10.80
2023-03-06T18:00:24.011Z,11.40
2023-03-06T18:02:52.431Z,12.50
2023-03-06T18:05:21.815Z,10.50
2023-03-06T18:07:50.341Z,11.40
2023-03-06T18:10:18.814Z,11.30
2023-03-06T18:12:47.206Z,12.40
2023-03-06T18:15:17.002Z,9.87
2023-03-06T18:17:45.504Z,9.17
2023-03-06T18:20:14.172Z,8.63
2023-03-06T18:22:42.689Z,6.97
2023-03-06T18:25:11.725Z,7.80
2023-03-06T18:27:40.463Z,7.07
2023-03-06T18:30:09.757Z,5.70
2023-03-06T18:32:39.471Z,5.60
2023-03-06T18:35:09.843Z,6.77
2023-03-06T18:37:38.599Z,5.70
2023-03-06T18:40:07.900Z,6.33
2023-03-06T18:42:36.410Z,6.57
2023-03-06T18:45:05.040Z,6.23
2023-03-06T18:47:33.752Z,6.53
2023-03-06T18:50:03.921Z,7.27
2023-03-06T18:52:32.237Z,6.17
2023-03-06T18:55:00.621Z,7.13
2023-03-06T18:57:30.430Z,6.67
2023-03-06T18:59:58.990Z,7.10
2023-03-06T19:02:27.441Z,6.97
2023-03-06T19:04:56.223Z,6.37
2023-03-06T19:07:26.359Z,6.77
2023-03-06T19:09:54.848Z,6.20
2023-03-06T19:12:23.631Z,6.90
2023-03-06T19:14:52.310Z,7.57
2023-03-06T19:17:20.853Z,7.70
2023-03-06T19:19:51.946Z,6.83
2023-03-06T19:22:20.437Z,6.30
2023-03-06T19:24:50.519Z,6.80
2023-03-06T19:27:19.060Z,6.47
2023-03-06T19:29:47.479Z,6.67
2023-03-06T19:32:16.012Z,8.17
2023-03-06T19:34:44.423Z,7.87
2023-03-06T19:37:12.826Z,7.37
2023-03-06T19:39:41.640Z,7.77
2023-03-06T19:42:13.774Z,7.93
2023-03-06T19:44:42.359Z,9.33
2023-03-06T19:47:10.557Z,10.47
2023-03-06T19:49:39.714Z,10.27
2023-03-06T19:52:08.120Z,10.43
2023-03-06T19:54:36.810Z,7.47
2023-03-06T19:57:05.358Z,9.90
2023-03-06T19:59:35.428Z,8.80
2023-03-06T20:02:03.917Z,9.07
2023-03-06T20:04:33.150Z,7.90
2023-03-06T20:07:01.762Z,8.07
2023-03-06T20:09:32.342Z,7.43
2023-03-06T20:12:00.730Z,6.93
2023-03-06T20:14:29.543Z,5.53
2023-03-06T20:16:59.114Z,6.10
2023-03-06T20:19:27.658Z,5.97
2023-03-06T20:21:56.136Z,7.30
2023-03-06T20:24:26.025Z,7.27
2023-03-06T20:26:57.538Z,4.93
2023-03-06T20:29:28.263Z,7.07
2023-03-06T20:31:58.864Z,7.57
2023-03-06T20:34:27.671Z,14.10
2023-03-06T20:36:56.852Z,7.30
2023-03-06T20:39:25.654Z,8.73
2023-03-06T20:41:54.169Z,7.37
2023-03-06T20:44:23.174Z,11.17
2023-03-06T20:46:52.014Z,10.80
2023-03-06T20:49:21.969Z,13.77
2023-03-06T20:51:51.114Z,7.30
2023-03-06T20:54:19.529Z,7.30
2023-03-06T20:56:50.151Z,6.43
2023-03-06T20:59:18.873Z,5.80
2023-03-06T21:01:48.162Z,4.80
2023-03-06T21:04:17.344Z,7.93
2023-03-06T21:06:47.741Z,6.17
2023-03-06T21:09:17.684Z,5.83
2023-03-06T21:11:46.874Z,7.03
2023-03-06T21:14:15.359Z,8.57
2023-03-06T21:16:44.048Z,8.70
2023-03-06T21:19:13.117Z,9.17
2023-03-06T21:21:41.423Z,7.13
2023-03-06T21:24:11.554Z,7.43
2023-03-06T21:26:40.144Z,7.77
2023-03-06T21:29:08.447Z,5.73
2023-03-06T21:31:37.213Z,6.97
2023-03-06T21:34:06.395Z,6.70
2023-03-06T21:36:35.362Z,6.93
2023-03-06T21:39:06.255Z,5.90
2023-03-06T21:41:38.089Z,6.83
2023-03-06T21:44:07.341Z,5.73
2023-03-06T21:46:35.997Z,7.27
2023-03-06T21:49:05.701Z,5.90
2023-03-06T21:51:34.799Z,6.27
2023-03-06T21:54:04.024Z,6.60
2023-03-06T21:56:33.575Z,7.10
2023-03-06T21:59:03.749Z,6.40
2023-03-06T22:01:32.206Z,6.43
2023-03-06T22:04:01.212Z,7.10
2023-03-06T22:06:31.127Z,6.30
2023-03-06T22:09:00.853Z,6.10
2023-03-06T22:11:31.486Z,7.77
2023-03-06T22:14:00.243Z,7.23
2023-03-06T22:16:29.891Z,6.93
2023-03-06T22:18:58.837Z,6.63
2023-03-06T22:21:27.388Z,7.87
2023-03-06T22:23:57.492Z,7.13
2023-03-06T22:26:26.996Z,7.07
2023-03-06T22:28:55.895Z,7.27
2023-03-06T22:31:26.171Z,6.97
2023-03-06T22:33:56.875Z,7.43
2023-03-06T22:36:26.116Z,7.40
2023-03-06T22:38:57.245Z,8.03
2023-03-06T22:41:26.821Z,6.83
2023-03-06T22:43:57.806Z,6.90
2023-03-06T22:46:27.307Z,5.80
2023-03-06T22:48:59.003Z,6.20
2023-03-06T22:51:29.406Z,5.77
2023-03-06T22:53:58.269Z,5.90
2023-03-06T22:56:27.503Z,5.67
2023-03-06T22:58:57.662Z,6.53
2023-03-06T23:01:28.017Z,6.73
2023-03-06T23:03:59.750Z,6.27
2023-03-06T23:06:29.892Z,6.90
2023-03-06T23:09:00.382Z,5.87
2023-03-06T23:11:29.741Z,5.83
2023-03-06T23:13:58.541Z,5.60
2023-03-06T23:16:27.295Z,5.80
2023-03-06T23:18:57.386Z,5.77
2023-03-06T23:21:26.119Z,5.40
2023-03-06T23:23:55.872Z,4.20
2023-03-06T23:26:26.361Z,4.27
2023-03-06T23:28:54.914Z,4.07
2023-03-06T23:31:25.235Z,4.77
2023-03-06T23:33:53.743Z,4.17
2023-03-06T23:36:23.314Z,4.10
2023-03-06T23:38:51.939Z,4.73
2023-03-06T23:41:21.709Z,5.13
2023-03-06T23:43:50.702Z,4.77
2023-03-06T23:46:19.355Z,4.90
2023-03-06T23:48:48.195Z,5.27
2023-03-06T23:51:18.092Z,5.63
2023-03-06T23:53:49.020Z,6.43
2023-03-06T23:56:17.407Z,6.80
2023-03-06T23:58:46.533Z,7.23
